createdAt,value
2019-05-11T00:02:20.206Z,72.49
2019-05-11T00:07:23.292Z,73.11
2019-05-11T00:12:26.252Z,73.85
2019-05-11T00:17:29.555Z,73.12
2019-05-11T00:22:32.620Z,73.31
2019-05-11T00:27:35.632Z,73.15
2019-05-11T00:32:38.389Z,73.16
2019-05-11T00:37:41.183Z,73.93
2019-05-11T00:42:43.916Z,74.32
2019-05-11T00:47:47.722Z,73.57
2019-05-11T00:52:50.518Z,74.17
2019-05-11T00:57:53.245Z,73.53
2019-05-11T01:02:55.972Z,73.04
2019-05-11T01:07:58.709Z,73.45
2019-05-11T01:13:01.435Z,73.79
2019-05-11T01:18:04.144Z,74.32
2019-05-11T01:23:06.879Z,74.35
2019-05-11T01:28:09.700Z,73.76
2019-05-11T01:33:12.433Z,73.95
2019-05-11T01:38:15.236Z,73.76
2019-05-11T01:43:18.026Z,74.47
2019-05-11T01:48:20.737Z,74.57
2019-05-11T01:53:23.480Z,74.45
2019-05-11T01:58:26.215Z,74.62
2019-05-11T02:03:28.947Z,74.84
2019-05-11T02:08:31.653Z,74.92
2019-05-11T02:13:34.391Z,75.33
2019-05-11T02:18:37.123Z,74.70
2019-05-11T02:23:39.832Z,73.99
2019-05-11T02:28:42.557Z,73.43
2019-05-11T02:33:45.270Z,74.11
2019-05-11T02:38:47.980Z,73.66
2019-05-11T02:43:50.793Z,74.18
2019-05-11T02:48:53.568Z,74.44
2019-05-11T02:53:57.419Z,74.26
2019-05-11T02:59:00.164Z,74.13
2019-05-11T03:04:02.914Z,74.45
2019-05-11T03:09:06.495Z,74.07
2019-05-11T03:14:09.229Z,74.37
2019-05-11T03:19:11.965Z,74.16
2019-05-11T03:24:14.866Z,74.75
2019-05-11T03:29:17.596Z,74.85
2019-05-11T03:34:20.317Z,74.91
2019-05-11T03:39:23.060Z,75.40
2019-05-11T03:44:25.813Z,75.61
2019-05-11T03:49:28.575Z,76.50
2019-05-11T03:54:31.293Z,76.89
2019-05-11T03:59:34.006Z,76.96
2019-05-11T04:04:36.786Z,76.86
2019-05-11T04:09:39.529Z,76.69
2019-05-11T04:14:42.250Z,76.35
2019-05-11T04:19:44.984Z,76.11
2019-05-11T04:24:47.714Z,76.25
2019-05-11T04:29:50.441Z,75.80
2019-05-11T04:34:53.220Z,75.46
2019-05-11T04:39:56.004Z,74.79
2019-05-11T04:44:58.939Z,74.51
2019-05-11T04:50:01.680Z,75.01
2019-05-11T04:55:04.730Z,74.92
2019-05-11T05:00:10.756Z,74.15
2019-05-11T05:05:13.497Z,74.00
2019-05-11T05:10:20.064Z,73.71
2019-05-11T05:15:20.974Z,73.80
2019-05-11T05:20:23.688Z,73.97
2019-05-11T05:25:26.414Z,73.40
2019-05-11T05:30:29.130Z,73.20
2019-05-11T05:35:31.843Z,72.90
2019-05-11T05:40:34.608Z,72.67
2019-05-11T05:45:37.350Z,72.75
2019-05-11T05:50:41.147Z,72.64
2019-05-11T05:55:43.878Z,72.90
2019-05-11T06:00:46.613Z,72.73
2019-05-11T06:05:49.385Z,72.71
2019-05-11T06:10:52.587Z,72.79
2019-05-11T06:15:55.316Z,72.17
2019-05-11T06:20:58.098Z,71.83
2019-05-11T06:26:00.878Z,71.56
2019-05-11T06:31:03.786Z,70.57
2019-05-11T06:36:06.604Z,69.94
2019-05-11T06:41:09.389Z,70.10
2019-05-11T06:46:12.118Z,70.19
2019-05-11T06:51:14.877Z,70.06
2019-05-11T06:56:17.635Z,70.02
2019-05-11T07:01:20.390Z,68.98
2019-05-11T07:06:26.826Z,69.79
2019-05-11T07:11:27.794Z,69.80
2019-05-11T07:16:30.526Z,70.47
2019-05-11T07:21:33.307Z,69.77
2019-05-11T07:26:36.051Z,69.91
2019-05-11T07:31:38.775Z,69.90
2019-05-11T07:36:41.514Z,71.20
2019-05-11T07:41:44.290Z,72.02
2019-05-11T07:46:48.303Z,71.47
2019-05-11T07:51:51.356Z,70.79
2019-05-11T07:56:54.092Z,70.73
2019-05-11T08:01:58.297Z,71.84
2019-05-11T08:07:01.356Z,72.33
2019-05-11T08:12:04.084Z,72.59
2019-05-11T08:17:08.626Z,73.22
2019-05-11T08:22:11.646Z,74.03
2019-05-11T08:27:14.389Z,74.81
2019-05-11T08:32:18.286Z,74.54
2019-05-11T08:37:21.270Z,74.30
2019-05-11T08:42:24.070Z,73.76
2019-05-11T08:47:28.339Z,73.74
2019-05-11T08:52:31.302Z,74.93
2019-05-11T08:57:34.047Z,77.04
2019-05-11T09:02:38.361Z,77.14
2019-05-11T09:07:41.332Z,76.91
2019-05-11T09:12:44.055Z,77.36
2019-05-11T09:17:48.740Z,76.77
2019-05-11T09:22:51.433Z,77.17
2019-05-11T09:27:54.161Z,76.58
2019-05-11T09:32:58.151Z,77.20
2019-05-11T09:38:01.014Z,77.24
2019-05-11T09:43:03.791Z,76.71
2019-05-11T09:48:08.588Z,75.96
2019-05-11T09:53:11.151Z,75.31
2019-05-11T09:58:13.851Z,75.08
2019-05-11T10:03:18.606Z,75.38
2019-05-11T10:08:21.247Z,74.40
2019-05-11T10:13:24.047Z,74.40
2019-05-11T10:18:28.250Z,72.77
2019-05-11T10:23:31.187Z,73.33
2019-05-11T10:28:35.020Z,71.38
2019-05-11T10:33:38.352Z,70.71
2019-05-11T10:38:41.931Z,70.45
2019-05-11T10:43:45.442Z,70.59
2019-05-11T10:48:49.810Z,71.02
2019-05-11T10:53:53.332Z,70.20
2019-05-11T10:58:58.627Z,70.04
2019-05-11T11:04:03.343Z,68.90
2019-05-11T11:09:08.916Z,68.54
2019-05-11T11:14:12.797Z,68.68
2019-05-11T11:19:18.342Z,68.46
2019-05-11T11:24:23.359Z,68.85
2019-05-11T11:29:28.817Z,67.78
2019-05-11T11:34:32.934Z,68.72
2019-05-11T11:39:38.791Z,68.05
2019-05-11T11:44:43.181Z,67.86
2019-05-11T11:49:47.565Z,68.24
2019-05-11T11:54:53.307Z,67.80
2019-05-11T11:59:58.755Z,67.11
2019-05-11T12:05:02.634Z,66.85
2019-05-11T12:10:07.825Z,66.88
2019-05-11T12:15:13.677Z,66.69
2019-05-11T12:20:18.042Z,67.27
2019-05-11T12:25:21.093Z,66.48
2019-05-11T12:30:23.819Z,66.10
2019-05-11T12:35:28.451Z,67.17
2019-05-11T12:40:31.174Z,66.28
2019-05-11T12:45:33.916Z,64.59
2019-05-11T12:50:37.842Z,63.76
2019-05-11T12:55:40.905Z,62.48
2019-05-11T13:00:43.613Z,62.15
2019-05-11T13:05:48.334Z,62.14
2019-05-11T13:10:51.030Z,61.62
2019-05-11T13:15:53.748Z,61.42
2019-05-11T13:20:58.613Z,61.72
2019-05-11T13:26:01.104Z,60.85
2019-05-11T13:31:03.982Z,59.62
2019-05-11T13:36:08.920Z,59.19
2019-05-11T13:41:11.611Z,58.61
2019-05-11T13:46:14.318Z,58.08
2019-05-11T13:51:18.276Z,58.16
2019-05-11T13:56:21.203Z,56.96
2019-05-11T14:01:23.951Z,57.62
2019-05-11T14:06:28.774Z,57.37
2019-05-11T14:11:31.365Z,57.77
2019-05-11T14:16:34.083Z,57.84
2019-05-11T14:21:38.528Z,57.40
2019-05-11T14:26:41.525Z,56.72
2019-05-11T14:31:44.314Z,56.72
2019-05-11T14:36:48.035Z,56.99
2019-05-11T14:41:50.967Z,55.32
2019-05-11T14:46:53.734Z,55.50
2019-05-11T14:51:57.733Z,54.21
2019-05-11T14:57:00.818Z,53.44
2019-05-11T15:02:23.213Z,52.42
2019-05-11T15:07:28.186Z,51.10
2019-05-11T15:12:30.630Z,51.07
2019-05-11T15:17:33.482Z,52.15
2019-05-11T15:22:37.816Z,52.52
2019-05-11T15:27:40.659Z,52.02
2019-05-11T15:32:43.412Z,49.88
2019-05-11T15:37:58.425Z,47.99
2019-05-11T15:43:01.293Z,46.48
2019-05-11T15:48:04.120Z,46.18
2019-05-11T15:53:08.729Z,44.03
2019-05-11T15:58:11.628Z,43.35
2019-05-11T16:03:14.353Z,43.68
2019-05-11T16:08:18.791Z,42.07
2019-05-11T16:13:21.869Z,41.82
2019-05-11T16:18:24.719Z,42.34
2019-05-11T16:23:28.396Z,44.41
2019-05-11T16:28:31.339Z,44.41
2019-05-11T16:33:34.070Z,46.51
2019-05-11T16:38:38.071Z,46.99
2019-05-11T16:43:41.133Z,45.55
2019-05-11T16:48:43.897Z,45.35
2019-05-11T16:53:48.094Z,45.41
2019-05-11T16:58:50.970Z,45.68
2019-05-11T17:03:53.676Z,46.58
2019-05-11T17:08:58.027Z,47.50
2019-05-11T17:14:01.047Z,47.65
2019-05-11T17:19:03.810Z,48.98
2019-05-11T17:24:06.596Z,52.68
2019-05-11T17:29:10.074Z,54.09
2019-05-11T17:35:11.004Z,54.41
2019-05-11T17:40:13.874Z,55.14
2019-05-11T17:45:18.658Z,56.07
2019-05-11T17:50:21.239Z,56.10
2019-05-11T17:55:23.973Z,56.31
2019-05-11T18:00:28.349Z,56.63
2019-05-11T18:05:31.269Z,57.38
2019-05-11T18:10:33.986Z,57.36
2019-05-11T18:15:38.091Z,57.46
2019-05-11T18:20:41.054Z,57.90
2019-05-11T18:25:43.769Z,58.68
2019-05-11T18:30:47.969Z,58.91
2019-05-11T18:35:50.835Z,59.40
2019-05-11T18:40:53.663Z,59.68
2019-05-11T18:45:58.101Z,59.62
2019-05-11T18:51:01.638Z,60.15
2019-05-11T18:56:04.447Z,60.56
2019-05-11T19:01:07.150Z,60.76
2019-05-11T19:06:09.867Z,61.10
2019-05-11T19:11:12.675Z,61.16
2019-05-11T19:16:15.400Z,61.43
2019-05-11T19:21:18.185Z,61.73
2019-05-11T19:26:21.028Z,61.93
2019-05-11T19:31:23.733Z,62.54
2019-05-11T19:36:27.725Z,62.69
2019-05-11T19:41:30.675Z,62.98
2019-05-11T19:46:34.426Z,63.52
2019-05-11T19:51:42.267Z,64.16
2019-05-11T19:56:43.258Z,64.93
2019-05-11T20:01:46.041Z,65.34
2019-05-11T20:06:48.904Z,66.14
2019-05-11T20:11:52.693Z,65.96
2019-05-11T20:16:55.437Z,66.30
2019-05-11T20:21:58.155Z,66.10
2019-05-11T20:27:00.963Z,66.16
2019-05-11T20:32:03.761Z,65.94
2019-05-11T20:37:07.821Z,66.07
2019-05-11T20:42:10.686Z,66.44
2019-05-11T20:47:13.389Z,66.33
2019-05-11T20:52:17.833Z,66.40
2019-05-11T20:57:20.729Z,66.88
2019-05-11T21:02:23.429Z,67.07
2019-05-11T21:07:28.038Z,67.49
2019-05-11T21:12:31.893Z,67.62
2019-05-11T21:17:34.799Z,68.09
2019-05-11T21:22:40.453Z,68.50
2019-05-11T21:27:42.559Z,68.46
2019-05-11T21:32:47.670Z,68.89
2019-05-11T21:37:49.919Z,69.05
2019-05-11T21:42:52.670Z,69.31
2019-05-11T21:47:57.813Z,69.84
2019-05-11T21:53:00.037Z,70.20
2019-05-11T21:58:02.779Z,70.58
2019-05-11T22:03:09.701Z,70.58
2019-05-11T22:08:10.190Z,70.50
2019-05-11T22:13:12.932Z,70.97
2019-05-11T22:18:29.838Z,71.31
2019-05-11T22:23:20.300Z,71.04
2019-05-11T22:28:23.003Z,71.40
2019-05-11T22:33:25.737Z,71.37
2019-05-11T22:38:30.311Z,71.55
2019-05-11T22:43:33.128Z,71.46
2019-05-11T22:48:38.018Z,71.65
2019-05-11T22:53:47.169Z,71.61
2019-05-11T22:58:45.091Z,71.73
2019-05-11T23:03:47.799Z,71.89
2019-05-11T23:08:53.996Z,72.11
2019-05-11T23:13:55.138Z,72.21
2019-05-11T23:18:57.858Z,72.36
2019-05-11T23:24:00.573Z,72.50
2019-05-11T23:29:03.301Z,72.74
2019-05-11T23:34:08.184Z,72.75
2019-05-11T23:39:10.607Z,72.83
2019-05-11T23:44:13.356Z,72.83
2019-05-11T23:49:17.916Z,72.94
2019-05-11T23:54:20.707Z,72.88
2019-05-11T23:59:23.478Z,72.92
